createdAt,value
2018-02-19T00:01:03.139Z,-1.30
2018-02-19T00:03:30.685Z,-1.30
2018-02-19T00:05:58.231Z,-1.30
2018-02-19T00:08:25.761Z,-1.30
2018-02-19T00:10:53.297Z,-1.30
2018-02-19T00:13:20.826Z,-1.20
2018-02-19T00:15:48.364Z,-1.20
2018-02-19T00:18:16.653Z,-1.20
2018-02-19T00:20:44.199Z,-1.20
2018-02-19T00:23:12.490Z,-1.20
2018-02-19T00:25:40.038Z,-1.20
2018-02-19T00:28:08.354Z,-1.20
2018-02-19T00:30:35.878Z,-1.30
2018-02-19T00:33:04.183Z,-1.20
2018-02-19T00:35:31.702Z,-1.30
2018-02-19T00:38:00.011Z,-1.20
2018-02-19T00:40:27.534Z,-1.20
2018-02-19T00:42:55.073Z,-1.20
2018-02-19T00:45:22.594Z,-1.20
2018-02-19T00:47:50.134Z,-1.30
2018-02-19T00:50:18.426Z,-1.20
2018-02-19T00:52:45.971Z,-1.30
2018-02-19T00:55:13.493Z,-1.20
2018-02-19T00:57:41.056Z,-1.20
2018-02-19T01:00:08.574Z,-1.30
2018-02-19T01:02:36.118Z,-1.30
2018-02-19T01:05:03.654Z,-1.30
2018-02-19T01:07:31.203Z,-1.30
2018-02-19T01:09:58.727Z,-1.20
2018-02-19T01:12:26.270Z,-1.20
2018-02-19T01:14:53.794Z,-1.20
2018-02-19T01:17:21.341Z,-1.20
2018-02-19T01:19:48.869Z,-1.20
2018-02-19T01:22:16.407Z,-1.20
2018-02-19T01:24:43.943Z,-1.20
2018-02-19T01:27:12.254Z,-1.20
2018-02-19T01:29:39.779Z,-1.20
2018-02-19T01:32:08.095Z,-1.20
2018-02-19T01:34:35.624Z,-1.20
2018-02-19T01:37:03.934Z,-1.20
2018-02-19T01:39:31.454Z,-1.20
2018-02-19T01:41:59.757Z,-1.10
2018-02-19T01:44:27.283Z,-1.10
2018-02-19T01:46:55.595Z,-1.10
2018-02-19T01:49:23.125Z,-1.10
2018-02-19T01:51:51.439Z,-1.10
2018-02-19T01:54:18.966Z,-1.10
2018-02-19T01:56:47.279Z,-1.20
2018-02-19T01:59:14.806Z,-1.20
2018-02-19T02:01:43.121Z,-1.20
2018-02-19T02:04:10.648Z,-1.20
2018-02-19T02:06:38.956Z,-1.20
2018-02-19T02:09:06.482Z,-1.20
2018-02-19T02:11:34.788Z,-1.20
2018-02-19T02:14:02.313Z,-1.20
2018-02-19T02:16:30.620Z,-1.20
2018-02-19T02:18:58.145Z,-1.20
2018-02-19T02:21:25.690Z,-1.20
2018-02-19T02:23:53.219Z,-1.30
2018-02-19T02:26:20.734Z,-1.30
2018-02-19T02:28:49.038Z,-1.40
2018-02-19T02:31:16.568Z,-1.40
2018-02-19T02:33:44.888Z,-1.50
2018-02-19T02:36:12.410Z,-1.50
2018-02-19T02:38:40.727Z,-1.60
2018-02-19T02:41:08.250Z,-1.70
2018-02-19T02:43:36.550Z,-1.80
2018-02-19T02:46:04.077Z,-1.80
2018-02-19T02:48:31.619Z,-1.80
2018-02-19T02:50:59.908Z,-1.80
2018-02-19T02:53:27.459Z,-1.90
2018-02-19T02:55:54.987Z,-1.90
2018-02-19T02:58:22.538Z,-1.90
2018-02-19T03:00:50.074Z,-2.00
2018-02-19T03:03:18.382Z,-2.10
2018-02-19T03:05:45.897Z,-2.10
2018-02-19T03:08:13.441Z,-2.00
2018-02-19T03:10:40.963Z,-2.10
2018-02-19T03:13:08.506Z,-2.10
2018-02-19T03:15:36.033Z,-2.10
2018-02-19T03:18:03.580Z,-2.10
2018-02-19T03:20:31.106Z,-2.10
2018-02-19T03:22:58.641Z,-2.00
2018-02-19T03:25:26.161Z,-2.00
2018-02-19T03:27:53.713Z,-1.90
2018-02-19T03:30:21.248Z,-1.90
2018-02-19T03:32:48.816Z,-1.90
2018-02-19T03:35:16.343Z,-1.90
2018-02-19T03:37:44.630Z,-1.90
2018-02-19T03:40:12.941Z,-1.90
2018-02-19T03:42:40.466Z,-1.90
2018-02-19T03:45:08.059Z,-2.00
2018-02-19T03:47:35.554Z,-2.00
2018-02-19T03:50:03.103Z,-2.10
2018-02-19T03:52:30.631Z,-2.10
2018-02-19T03:54:58.176Z,-2.20
2018-02-19T03:57:25.706Z,-2.20
2018-02-19T03:59:54.018Z,-2.20
2018-02-19T04:02:21.543Z,-2.20
2018-02-19T04:04:49.854Z,-2.20
2018-02-19T04:07:17.374Z,-2.30
2018-02-19T04:09:44.911Z,-2.30
2018-02-19T04:12:12.434Z,-2.30
2018-02-19T04:14:39.973Z,-2.30
2018-02-19T04:17:08.282Z,-2.40
2018-02-19T04:19:35.808Z,-2.40
2018-02-19T04:22:04.115Z,-2.40
2018-02-19T04:24:31.639Z,-2.40
2018-02-19T04:26:59.947Z,-2.40
2018-02-19T04:29:27.475Z,-2.40
2018-02-19T04:31:55.781Z,-2.50
2018-02-19T04:34:23.309Z,-2.50
2018-02-19T04:36:50.850Z,-2.60
2018-02-19T04:39:18.371Z,-2.60
2018-02-19T04:41:45.913Z,-2.70
2018-02-19T04:47:10.641Z,-2.70
2018-02-19T04:49:38.157Z,-2.70
2018-02-19T04:52:05.693Z,-2.80
2018-02-19T04:54:33.214Z,-2.80
2018-02-19T04:57:00.762Z,-2.80
2018-02-19T04:59:29.046Z,-2.90
2018-02-19T05:01:56.566Z,-2.90
2018-02-19T05:04:24.114Z,-2.90
2018-02-19T05:06:51.638Z,-2.90
2018-02-19T05:09:19.183Z,-2.90
2018-02-19T05:11:46.708Z,-2.90
2018-02-19T05:14:14.244Z,-2.90
2018-02-19T05:16:41.764Z,-3.00
2018-02-19T05:19:09.309Z,-3.00
2018-02-19T05:21:37.595Z,-3.10
2018-02-19T05:24:05.905Z,-3.10
2018-02-19T05:26:33.430Z,-3.10
2018-02-19T05:29:01.788Z,-3.10
2018-02-19T05:31:29.279Z,-3.10
2018-02-19T05:33:56.818Z,-3.10
2018-02-19T05:36:25.101Z,-3.00
2018-02-19T05:38:53.402Z,-3.00
2018-02-19T05:41:20.921Z,-3.00
2018-02-19T05:43:48.483Z,-3.00
2018-02-19T05:46:16.001Z,-3.00
2018-02-19T05:48:43.525Z,-2.90
2018-02-19T05:51:11.833Z,-2.90
2018-02-19T05:53:39.383Z,-2.90
2018-02-19T05:56:06.912Z,-2.90
2018-02-19T05:58:35.193Z,-2.90
2018-02-19T06:01:03.508Z,-2.90
2018-02-19T06:03:31.036Z,-2.90
2018-02-19T06:05:59.345Z,-2.90
2018-02-19T06:08:26.866Z,-2.90
2018-02-19T06:10:55.169Z,-3.00
2018-02-19T06:13:22.696Z,-3.00
2018-02-19T06:15:50.234Z,-3.00
2018-02-19T06:18:17.757Z,-3.10
2018-02-19T06:20:45.334Z,-3.10
2018-02-19T06:23:12.862Z,-3.10
2018-02-19T06:25:41.170Z,-3.20
2018-02-19T06:28:08.688Z,-3.10
2018-02-19T06:30:37.034Z,-3.10
2018-02-19T06:33:04.538Z,-3.10
2018-02-19T06:35:32.077Z,-3.10
2018-02-19T06:37:59.599Z,-3.00
2018-02-19T06:40:27.157Z,-3.00
2018-02-19T06:42:54.689Z,-2.90
2018-02-19T06:45:22.238Z,-2.90
2018-02-19T06:47:50.531Z,-2.70
2018-02-19T06:50:18.057Z,-2.80
2018-02-19T06:52:45.598Z,-2.60
2018-02-19T06:55:13.114Z,-2.40
2018-02-19T06:57:40.658Z,-2.10
2018-02-19T07:00:08.941Z,-1.80
2018-02-19T07:02:36.486Z,-1.80
2018-02-19T07:05:04.779Z,-1.60
2018-02-19T07:07:32.323Z,-1.70
2018-02-19T07:10:00.614Z,-1.10
2018-02-19T07:12:28.162Z,-1.10
2018-02-19T07:14:56.455Z,-0.60
2018-02-19T07:17:23.998Z,-0.60
2018-02-19T07:19:52.291Z,-0.70
2018-02-19T07:22:19.850Z,-0.70
2018-02-19T07:24:48.141Z,-0.90
2018-02-19T07:27:15.662Z,-1.00
2018-02-19T07:29:43.203Z,-1.00
2018-02-19T07:32:10.721Z,-1.10
2018-02-19T07:34:38.268Z,-1.10
2018-02-19T07:37:06.563Z,-1.00
2018-02-19T07:39:34.107Z,-1.00
2018-02-19T07:42:02.402Z,-0.80
2018-02-19T07:44:29.942Z,-0.80
2018-02-19T07:46:58.227Z,-0.60
2018-02-19T07:49:26.534Z,-0.50
2018-02-19T07:51:54.098Z,-0.50
2018-02-19T07:54:21.637Z,-0.40
2018-02-19T07:56:49.165Z,-0.30
2018-02-19T07:59:16.706Z,-0.30
2018-02-19T08:01:44.231Z,-0.10
2018-02-19T08:04:11.774Z,0.00
2018-02-19T08:06:40.059Z,0.20
2018-02-19T08:09:07.588Z,0.20
2018-02-19T08:11:35.105Z,0.30
2018-02-19T08:14:02.642Z,0.40
2018-02-19T08:16:30.151Z,0.60
2018-02-19T08:18:57.680Z,0.80
2018-02-19T08:21:25.248Z,1.00
2018-02-19T08:23:52.804Z,1.10
2018-02-19T08:26:20.336Z,1.10
2018-02-19T08:28:48.626Z,1.30
2018-02-19T08:31:16.166Z,1.30
2018-02-19T08:33:44.454Z,1.90
2018-02-19T08:36:12.758Z,2.70
2018-02-19T08:38:40.334Z,2.70
2018-02-19T08:41:07.838Z,3.70
2018-02-19T08:43:36.133Z,4.90
2018-02-19T08:46:03.679Z,4.90
2018-02-19T08:48:31.969Z,5.20
2018-02-19T08:51:00.269Z,5.20
2018-02-19T08:53:27.793Z,5.20
2018-02-19T08:55:56.106Z,5.10
2018-02-19T08:58:23.638Z,5.10
2018-02-19T09:00:51.958Z,5.50
2018-02-19T09:03:19.475Z,5.50
2018-02-19T09:05:47.776Z,6.70
2018-02-19T09:08:15.308Z,6.70
2018-02-19T09:10:42.842Z,7.00
2018-02-19T09:13:10.356Z,7.00
2018-02-19T09:15:37.896Z,7.20
2018-02-19T09:18:05.405Z,7.40
2018-02-19T09:20:32.918Z,7.40
2018-02-19T09:23:00.466Z,7.30
2018-02-19T09:25:27.982Z,7.40
2018-02-19T09:27:55.654Z,7.70
2018-02-19T09:30:23.170Z,7.60
2018-02-19T09:32:51.471Z,6.00
2018-02-19T09:35:18.985Z,5.90
2018-02-19T09:37:48.028Z,5.10
2018-02-19T09:40:15.549Z,5.10
2018-02-19T09:42:43.169Z,4.70
2018-02-19T09:45:10.729Z,4.30
2018-02-19T09:47:38.270Z,4.00
2018-02-19T09:50:05.790Z,3.70
2018-02-19T09:52:33.334Z,3.80
2018-02-19T09:55:00.858Z,4.20
2018-02-19T09:57:28.401Z,4.50
2018-02-19T09:59:55.932Z,4.50
2018-02-19T10:02:23.474Z,4.50
2018-02-19T10:04:51.766Z,4.90
2018-02-19T10:07:19.326Z,4.90
2018-02-19T10:12:21.582Z,5.60
2018-02-19T10:14:49.106Z,5.60
2018-02-19T10:17:17.394Z,6.00
2018-02-19T10:19:45.703Z,6.40
2018-02-19T10:22:13.228Z,6.40
2018-02-19T10:24:41.537Z,7.40
2018-02-19T10:27:09.062Z,7.40
2018-02-19T10:29:37.362Z,6.40
2018-02-19T10:32:04.887Z,6.40
2018-02-19T10:34:32.435Z,6.30
2018-02-19T10:36:59.956Z,6.50
2018-02-19T10:39:27.497Z,6.60
2018-02-19T10:41:55.019Z,6.50
2018-02-19T10:44:22.557Z,6.30
2018-02-19T10:46:50.082Z,6.40
2018-02-19T10:49:17.622Z,6.60
2018-02-19T10:51:45.915Z,6.90
2018-02-19T10:54:13.502Z,6.90
2018-02-19T10:56:41.029Z,6.80
2018-02-19T10:59:11.052Z,6.00
2018-02-19T11:01:39.333Z,5.80
2018-02-19T11:04:06.872Z,5.70
2018-02-19T11:06:34.393Z,5.20
2018-02-19T11:09:02.137Z,4.60
2018-02-19T11:11:29.486Z,4.30
2018-02-19T11:13:57.006Z,4.30
2018-02-19T11:16:24.549Z,4.20
2018-02-19T11:18:52.065Z,4.20
2018-02-19T11:21:19.605Z,4.40
2018-02-19T11:23:47.885Z,4.50
2018-02-19T11:26:16.185Z,4.60
2018-02-19T11:28:43.713Z,4.60
2018-02-19T11:31:11.401Z,4.70
2018-02-19T11:33:38.954Z,4.70
2018-02-19T11:36:07.262Z,4.20
2018-02-19T11:38:34.794Z,4.20
2018-02-19T11:41:03.102Z,3.80
2018-02-19T11:43:30.617Z,3.80
2018-02-19T11:45:58.168Z,3.70
2018-02-19T11:48:25.691Z,3.80
2018-02-19T11:50:53.234Z,3.70
2018-02-19T11:53:20.765Z,3.80
2018-02-19T11:55:49.073Z,3.50
2018-02-19T11:58:16.598Z,3.50
2018-02-19T12:00:44.130Z,3.40
2018-02-19T12:03:11.649Z,3.30
2018-02-19T12:05:39.214Z,3.30
2018-02-19T12:08:06.738Z,3.30
2018-02-19T12:10:34.268Z,3.30
2018-02-19T12:13:01.838Z,3.50
2018-02-19T12:15:29.358Z,3.60
2018-02-19T12:17:56.901Z,3.90
2018-02-19T12:20:25.185Z,4.30
2018-02-19T12:22:53.503Z,4.40
2018-02-19T12:25:21.025Z,4.40
2018-02-19T12:27:49.320Z,4.60
2018-02-19T12:30:16.846Z,4.60
2018-02-19T12:32:44.388Z,4.70
2018-02-19T12:35:11.903Z,4.60
2018-02-19T12:37:39.443Z,4.60
2018-02-19T12:40:07.737Z,4.70
2018-02-19T12:42:35.282Z,4.70
2018-02-19T12:45:03.562Z,4.80
2018-02-19T12:47:31.857Z,4.90
2018-02-19T12:49:59.383Z,4.90
2018-02-19T12:52:26.931Z,5.00
2018-02-19T12:54:54.455Z,5.00
2018-02-19T12:57:21.969Z,4.90
2018-02-19T12:59:49.500Z,4.70
2018-02-19T13:02:17.021Z,4.40
2018-02-19T13:04:44.565Z,4.00
2018-02-19T13:07:12.082Z,3.90
2018-02-19T13:09:39.735Z,3.90
2018-02-19T13:12:07.262Z,3.80
2018-02-19T13:14:35.575Z,4.00
2018-02-19T13:17:03.103Z,3.90
2018-02-19T13:19:31.401Z,4.30
2018-02-19T13:21:58.927Z,4.30
2018-02-19T13:24:26.457Z,4.50
2018-02-19T13:26:53.974Z,4.50
2018-02-19T13:29:21.517Z,4.50
2018-02-19T13:31:49.802Z,4.50
2018-02-19T13:34:18.108Z,4.40
2018-02-19T13:36:45.623Z,4.40
2018-02-19T13:39:13.158Z,4.30
2018-02-19T13:41:40.682Z,4.30
2018-02-19T13:44:08.205Z,4.20
2018-02-19T13:46:35.741Z,4.20
2018-02-19T13:49:03.261Z,4.10
2018-02-19T13:51:30.844Z,4.00
2018-02-19T13:53:58.359Z,3.90
2018-02-19T13:56:26.181Z,3.90
2018-02-19T13:58:53.730Z,4.00
2018-02-19T14:01:21.273Z,4.10
2018-02-19T14:03:49.554Z,4.20
2018-02-19T14:06:17.085Z,4.20
2018-02-19T14:08:44.614Z,4.30
2018-02-19T14:11:12.388Z,4.40
2018-02-19T14:13:39.933Z,4.30
2018-02-19T14:16:07.469Z,4.30
2018-02-19T14:18:34.983Z,4.20
2018-02-19T14:21:02.522Z,4.10
2018-02-19T14:23:30.041Z,4.10
2018-02-19T14:25:57.565Z,4.00
2018-02-19T14:28:25.102Z,4.00
2018-02-19T14:30:52.621Z,4.10
2018-02-19T14:33:20.918Z,4.30
2018-02-19T14:35:48.434Z,4.30
2018-02-19T14:38:15.973Z,4.30
2018-02-19T14:40:43.502Z,4.30
2018-02-19T14:43:11.050Z,4.20
2018-02-19T14:45:38.970Z,4.10
2018-02-19T14:48:06.506Z,4.00
2018-02-19T14:50:34.025Z,4.00
2018-02-19T14:53:02.333Z,3.90
2018-02-19T14:55:29.867Z,3.90
2018-02-19T14:57:58.174Z,3.70
2018-02-19T15:00:25.694Z,3.60
2018-02-19T15:02:54.006Z,3.40
2018-02-19T15:05:21.531Z,3.40
2018-02-19T15:07:49.069Z,3.40
2018-02-19T15:10:16.639Z,3.30
2018-02-19T15:12:44.153Z,3.20
2018-02-19T15:15:11.681Z,3.10
2018-02-19T15:17:39.992Z,2.90
2018-02-19T15:20:07.563Z,2.90
2018-02-19T15:22:35.111Z,2.80
2018-02-19T15:25:02.645Z,2.80
2018-02-19T15:27:30.940Z,2.70
2018-02-19T15:29:58.483Z,2.70
2018-02-19T15:32:26.774Z,2.50
2018-02-19T15:34:55.089Z,2.50
2018-02-19T15:37:22.614Z,2.50
2018-02-19T15:39:50.926Z,2.40
2018-02-19T15:42:18.445Z,2.40
2018-02-19T15:44:46.753Z,2.30
2018-02-19T15:47:14.277Z,2.30
2018-02-19T15:49:42.586Z,2.20
2018-02-19T15:52:10.105Z,2.20
2018-02-19T15:54:37.733Z,2.10
2018-02-19T15:57:05.262Z,2.00
2018-02-19T15:59:33.577Z,1.90
2018-02-19T16:02:01.102Z,1.90
2018-02-19T16:04:29.412Z,1.70
2018-02-19T16:06:56.941Z,1.70
2018-02-19T16:09:24.579Z,1.70
2018-02-19T16:11:52.121Z,1.60
2018-02-19T16:14:19.647Z,1.60
2018-02-19T16:16:47.193Z,1.60
2018-02-19T16:19:14.725Z,1.50
2018-02-19T16:21:42.265Z,1.40
2018-02-19T16:24:09.786Z,1.40
2018-02-19T16:26:37.316Z,1.30
2018-02-19T16:29:04.846Z,1.30
2018-02-19T16:31:32.401Z,1.20
2018-02-19T16:33:59.922Z,1.10
2018-02-19T16:36:28.223Z,1.10
2018-02-19T16:38:55.747Z,1.10
2018-02-19T16:41:24.054Z,1.00
2018-02-19T16:43:51.581Z,1.00
2018-02-19T16:46:19.902Z,0.90
2018-02-19T16:48:47.420Z,0.90
2018-02-19T16:51:14.957Z,0.90
2018-02-19T16:53:42.478Z,0.80
2018-02-19T16:56:09.999Z,0.80
2018-02-19T16:58:37.618Z,0.70
2018-02-19T17:01:05.133Z,0.60
2018-02-19T17:03:32.669Z,0.50
2018-02-19T17:06:00.195Z,0.40
2018-02-19T17:08:27.728Z,0.30
2018-02-19T17:10:56.010Z,0.20
2018-02-19T17:13:24.317Z,0.20
2018-02-19T17:15:51.830Z,0.20
2018-02-19T17:18:19.396Z,0.10
2018-02-19T17:20:46.942Z,0.10
2018-02-19T17:23:14.478Z,0.00
2018-02-19T17:25:41.995Z,0.00
2018-02-19T17:28:09.531Z,0.00
2018-02-19T17:30:37.054Z,-0.10
2018-02-19T17:33:04.599Z,-0.10
2018-02-19T17:35:32.117Z,-0.20
2018-02-19T17:37:59.661Z,-0.30
2018-02-19T17:40:27.181Z,-0.30
2018-02-19T17:42:54.726Z,-0.30
2018-02-19T17:45:22.308Z,-0.30
2018-02-19T17:47:50.679Z,-0.30
2018-02-19T17:50:18.254Z,-0.40
2018-02-19T17:52:45.811Z,-0.40
2018-02-19T17:55:14.107Z,-0.40
2018-02-19T17:57:41.622Z,-0.40
2018-02-19T18:00:09.922Z,-0.40
2018-02-19T18:02:37.492Z,-0.50
2018-02-19T18:05:05.029Z,-0.50
2018-02-19T18:07:32.551Z,-0.50
2018-02-19T18:10:00.091Z,-0.50
2018-02-19T18:12:27.606Z,-0.50
2018-02-19T18:14:55.917Z,-0.50
2018-02-19T18:17:23.435Z,-0.50
2018-02-19T18:19:51.745Z,-0.50
2018-02-19T18:22:19.266Z,-0.50
2018-02-19T18:24:46.801Z,-0.50
2018-02-19T18:27:14.324Z,-0.60
2018-02-19T18:29:41.947Z,-0.70
2018-02-19T18:32:09.448Z,-0.70
2018-02-19T18:34:36.970Z,-0.70
2018-02-19T18:37:04.514Z,-0.80
2018-02-19T18:39:32.024Z,-0.80
2018-02-19T18:41:59.566Z,-0.80
2018-02-19T18:44:27.880Z,-0.90
2018-02-19T18:46:55.416Z,-0.90
2018-02-19T18:49:23.708Z,-0.90
2018-02-19T18:51:51.246Z,-1.00
2018-02-19T18:54:19.534Z,-1.00
2018-02-19T18:56:47.838Z,-1.10
2018-02-19T18:59:15.356Z,-1.10
2018-02-19T19:01:42.890Z,-1.10
2018-02-19T19:04:10.409Z,-1.10
2018-02-19T19:06:37.953Z,-1.10
2018-02-19T19:09:18.290Z,-1.20
2018-02-19T19:11:45.829Z,-1.20
2018-02-19T19:14:13.350Z,-1.30
2018-02-19T19:16:40.898Z,-1.30
2018-02-19T19:19:09.235Z,-1.40
2018-02-19T19:21:36.797Z,-1.40
2018-02-19T19:24:04.319Z,-1.40
2018-02-19T19:26:31.866Z,-1.50
2018-02-19T19:28:59.387Z,-1.50
2018-02-19T19:31:26.933Z,-1.50
2018-02-19T19:33:54.471Z,-1.60
2018-02-19T19:36:21.993Z,-1.60
2018-02-19T19:38:50.299Z,-1.70
2018-02-19T19:41:17.870Z,-1.70
2018-02-19T19:43:45.417Z,-1.70
2018-02-19T19:46:12.938Z,-1.70
2018-02-19T19:48:40.474Z,-1.70
2018-02-19T19:51:07.998Z,-1.80
2018-02-19T19:53:35.535Z,-1.80
2018-02-19T19:56:03.859Z,-1.80
2018-02-19T19:58:31.393Z,-1.80
2018-02-19T20:00:59.674Z,-1.80
2018-02-19T20:03:27.235Z,-1.80
2018-02-19T20:05:54.765Z,-1.80
2018-02-19T20:08:22.301Z,-1.80
2018-02-19T20:10:49.832Z,-1.80
2018-02-19T20:13:17.377Z,-1.80
2018-02-19T20:15:44.904Z,-1.90
2018-02-19T20:18:13.225Z,-1.90
2018-02-19T20:20:40.779Z,-1.90
2018-02-19T20:23:09.054Z,-2.00
2018-02-19T20:25:36.607Z,-2.00
2018-02-19T20:28:04.890Z,-2.10
2018-02-19T20:30:33.202Z,-2.20
2018-02-19T20:33:00.722Z,-2.20
2018-02-19T20:35:28.286Z,-2.20
2018-02-19T20:37:56.584Z,-2.30
2018-02-19T20:40:24.131Z,-2.30
2018-02-19T20:42:52.418Z,-2.40
2018-02-19T20:45:19.963Z,-2.40
2018-02-19T20:47:48.249Z,-2.40
2018-02-19T20:50:16.552Z,-2.40
2018-02-19T20:52:44.074Z,-2.50
2018-02-19T20:55:12.378Z,-2.50
2018-02-19T20:57:39.895Z,-2.50
2018-02-19T21:00:07.514Z,-2.50
2018-02-19T21:02:35.038Z,-2.50
2018-02-19T21:05:03.346Z,-2.50
2018-02-19T21:07:30.919Z,-2.50
2018-02-19T21:09:58.469Z,-2.50
2018-02-19T21:12:25.986Z,-2.50
2018-02-19T21:14:53.541Z,-2.50
2018-02-19T21:17:21.061Z,-2.50
2018-02-19T21:19:48.582Z,-2.60
2018-02-19T21:22:16.891Z,-2.60
2018-02-19T21:24:44.408Z,-2.70
2018-02-19T21:27:13.451Z,-2.70
2018-02-19T21:29:40.975Z,-2.80
2018-02-19T21:32:09.280Z,-2.80
2018-02-19T21:34:36.796Z,-2.80
2018-02-19T21:37:04.342Z,-2.80
2018-02-19T21:39:31.870Z,-2.80
2018-02-19T21:41:59.409Z,-2.80
2018-02-19T21:44:27.693Z,-2.80
2018-02-19T21:46:55.230Z,-2.80
2018-02-19T21:49:22.756Z,-2.80
2018-02-19T21:51:50.296Z,-2.80
2018-02-19T21:54:17.822Z,-2.90
2018-02-19T21:56:46.131Z,-3.00
2018-02-19T21:59:13.649Z,-3.00
2018-02-19T22:01:41.201Z,-3.00
2018-02-19T22:04:08.724Z,-3.00
2018-02-19T22:06:36.245Z,-3.00
2018-02-19T22:09:04.541Z,-3.10
2018-02-19T22:11:32.067Z,-3.10
2018-02-19T22:13:59.616Z,-3.10
2018-02-19T22:16:27.176Z,-3.10
2018-02-19T22:18:54.705Z,-3.10
2018-02-19T22:21:22.221Z,-3.10
2018-02-19T22:23:50.530Z,-3.20
2018-02-19T22:26:18.104Z,-3.20
2018-02-19T22:28:45.653Z,-3.20
2018-02-19T22:31:13.225Z,-3.30
2018-02-19T22:33:40.780Z,-3.30
2018-02-19T22:36:08.303Z,-3.40
2018-02-19T22:38:36.605Z,-3.40
2018-02-19T22:41:04.122Z,-3.40
2018-02-19T22:43:31.666Z,-3.30
2018-02-19T22:45:59.223Z,-3.30
2018-02-19T22:48:26.759Z,-3.40
2018-02-19T22:50:54.278Z,-3.40
2018-02-19T22:53:21.805Z,-3.50
2018-02-19T22:55:49.355Z,-3.60
2018-02-19T22:58:16.882Z,-3.60
2018-02-19T23:00:45.189Z,-3.60
2018-02-19T23:03:12.707Z,-3.60
2018-02-19T23:05:40.252Z,-3.50
2018-02-19T23:08:07.786Z,-3.50
2018-02-19T23:10:35.325Z,-3.60
2018-02-19T23:13:02.901Z,-3.60
2018-02-19T23:15:30.447Z,-3.70
2018-02-19T23:17:57.970Z,-3.70
2018-02-19T23:20:25.509Z,-3.70
2018-02-19T23:22:53.035Z,-3.80
2018-02-19T23:25:20.594Z,-3.80
2018-02-19T23:27:48.109Z,-3.90
2018-02-19T23:30:15.637Z,-3.90
2018-02-19T23:32:43.182Z,-3.90
2018-02-19T23:35:10.713Z,-3.90
2018-02-19T23:37:38.268Z,-3.90
2018-02-19T23:40:06.552Z,-3.90
2018-02-19T23:42:34.857Z,-4.00
2018-02-19T23:45:02.383Z,-4.00
2018-02-19T23:47:30.686Z,-4.00
2018-02-19T23:49:58.206Z,-4.10
2018-02-19T23:52:26.509Z,-4.00
2018-02-19T23:54:54.793Z,-4.10
2018-02-19T23:57:22.339Z,-4.10
2018-02-19T23:59:50.622Z,-4.20
